LFOA 301030Z AUTO 05012KT 010V090 CAVOK 22/05 Q1018

ElémentsDécodage
LFOA Station météo située sur l'aérodrome de AVORD
301030Z émis le 30 du mois à 10h30 UTC
AUTO Bulletin édité par un automate
05012KT vent du 050°, 12 noeuds
010V090 vent de direction variable entre 010° et 090°
CAVOK Ceiling And Visibility OK
- Visibilité de 10 Km ou plus
- Pas de nuage au-dessous de 1500m ou au-dessous de l'altitude minimale du secteur la plus élevée (si>1500m) et absence de CB
- pas de temps présent significatif
22/05 température 22°C, point de rosée 05°C
 soit une humidité relative de 33%
Q1018 la pression au niveau de la mer (QNH) est de 1018 hPa